sensor_id;sensor_type;location;lat;lon;timestamp;pressure;altitude;pressure_sealevel;temperature;humidity
34506;BME280;20748;42.632;23.198;2024-01-15T00:00:25;91362.81;;;-2.33;80.53
34506;BME280;20748;42.632;23.198;2024-01-15T00:03:00;91365.44;;;-2.27;80.42
34506;BME280;20748;42.632;23.198;2024-01-15T00:05:33;91371.06;;;-2.25;79.08
34506;BME280;20748;42.632;23.198;2024-01-15T00:08:07;91359.38;;;-2.21;79.36
34506;BME280;20748;42.632;23.198;2024-01-15T00:10:40;91359.16;;;-2.20;79.27
34506;BME280;20748;42.632;23.198;2024-01-15T00:13:14;91360.47;;;-2.17;79.46
34506;BME280;20748;42.632;23.198;2024-01-15T00:15:47;91349.75;;;-2.14;79.13
34506;BME280;20748;42.632;23.198;2024-01-15T00:18:22;91363.16;;;-2.07;78.16
34506;BME280;20748;42.632;23.198;2024-01-15T00:20:55;91359.66;;;-2.00;77.60
34506;BME280;20748;42.632;23.198;2024-01-15T00:23:29;91366.84;;;-1.97;77.60
34506;BME280;20748;42.632;23.198;2024-01-15T00:26:02;91364.00;;;-2.01;78.02
34506;BME280;20748;42.632;23.198;2024-01-15T00:28:39;91363.47;;;-2.03;78.27
34506;BME280;20748;42.632;23.198;2024-01-15T00:31:13;91368.03;;;-2.05;78.19
34506;BME280;20748;42.632;23.198;2024-01-15T00:33:50;91370.84;;;-2.07;78.77
34506;BME280;20748;42.632;23.198;2024-01-15T00:36:24;91365.16;;;-2.09;78.77
34506;BME280;20748;42.632;23.198;2024-01-15T00:38:58;91367.13;;;-2.16;79.03
34506;BME280;20748;42.632;23.198;2024-01-15T00:41:31;91363.09;;;-2.12;78.67
34506;BME280;20748;42.632;23.198;2024-01-15T00:44:05;91354.88;;;-2.14;79.21
34506;BME280;20748;42.632;23.198;2024-01-15T00:46:43;91365.16;;;-2.09;78.64
34506;BME280;20748;42.632;23.198;2024-01-15T00:49:18;91362.59;;;-2.09;77.83
34506;BME280;20748;42.632;23.198;2024-01-15T00:51:51;91367.19;;;-2.11;77.88
34506;BME280;20748;42.632;23.198;2024-01-15T00:54:24;91365.72;;;-2.07;76.85
34506;BME280;20748;42.632;23.198;2024-01-15T00:56:58;91356.78;;;-2.04;76.38
34506;BME280;20748;42.632;23.198;2024-01-15T00:59:31;91359.91;;;-2.19;76.74
34506;BME280;20748;42.632;23.198;2024-01-15T01:02:04;91349.66;;;-2.24;76.57
34506;BME280;20748;42.632;23.198;2024-01-15T01:04:39;91354.63;;;-2.12;76.26
34506;BME280;20748;42.632;23.198;2024-01-15T01:07:13;91358.13;;;-2.19;76.83
34506;BME280;20748;42.632;23.198;2024-01-15T01:09:46;91351.56;;;-2.14;75.23
34506;BME280;20748;42.632;23.198;2024-01-15T01:12:20;91355.72;;;-2.08;75.44
34506;BME280;20748;42.632;23.198;2024-01-15T01:14:53;91351.28;;;-2.13;75.36
34506;BME280;20748;42.632;23.198;2024-01-15T01:17:27;91349.06;;;-2.09;75.34
34506;BME280;20748;42.632;23.198;2024-01-15T01:20:05;91348.50;;;-2.11;75.16
34506;BME280;20748;42.632;23.198;2024-01-15T01:22:40;91342.22;;;-2.04;74.15
34506;BME280;20748;42.632;23.198;2024-01-15T01:25:14;91342.22;;;-2.04;73.25
34506;BME280;20748;42.632;23.198;2024-01-15T01:27:47;91329.75;;;-2.00;73.26
34506;BME280;20748;42.632;23.198;2024-01-15T01:30:21;91331.84;;;-1.97;73.61
34506;BME280;20748;42.632;23.198;2024-01-15T01:32:54;91329.50;;;-1.98;73.52
34506;BME280;20748;42.632;23.198;2024-01-15T01:35:29;91325.81;;;-2.08;73.68
34506;BME280;20748;42.632;23.198;2024-01-15T01:38:03;91337.91;;;-2.03;73.23
34506;BME280;20748;42.632;23.198;2024-01-15T01:40:38;91324.81;;;-2.07;73.50
34506;BME280;20748;42.632;23.198;2024-01-15T01:43:11;91329.75;;;-2.00;71.73
34506;BME280;20748;42.632;23.198;2024-01-15T01:45:45;91329.88;;;-2.12;71.84
34506;BME280;20748;42.632;23.198;2024-01-15T01:48:18;91316.81;;;-2.10;71.42
34506;BME280;20748;42.632;23.198;2024-01-15T01:50:54;91322.50;;;-2.08;71.84
34506;BME280;20748;42.632;23.198;2024-01-15T01:53:28;91319.44;;;-2.05;70.55
34506;BME280;20748;42.632;23.198;2024-01-15T01:56:02;91316.59;;;-2.09;70.72
34506;BME280;20748;42.632;23.198;2024-01-15T01:58:36;91317.75;;;-1.99;71.09
34506;BME280;20748;42.632;23.198;2024-01-15T02:01:10;91319.13;;;-1.92;71.08
34506;BME280;20748;42.632;23.198;2024-01-15T02:03:45;91318.78;;;-1.95;71.17
34506;BME280;20748;42.632;23.198;2024-01-15T02:06:20;91316.28;;;-2.12;70.96
34506;BME280;20748;42.632;23.198;2024-01-15T02:08:53;91315.53;;;-1.91;70.16
34506;BME280;20748;42.632;23.198;2024-01-15T02:11:27;91313.28;;;-1.87;70.08
34506;BME280;20748;42.632;23.198;2024-01-15T02:14:00;91298.16;;;-1.89;70.77
34506;BME280;20748;42.632;23.198;2024-01-15T02:16:34;91294.78;;;-1.94;71.09
34506;BME280;20748;42.632;23.198;2024-01-15T02:19:07;91276.94;;;-1.89;69.92
34506;BME280;20748;42.632;23.198;2024-01-15T02:21:49;91254.88;;;-1.95;70.89
34506;BME280;20748;42.632;23.198;2024-01-15T02:24:23;91252.66;;;-1.86;70.27
34506;BME280;20748;42.632;23.198;2024-01-15T02:26:57;91241.72;;;-1.82;70.32
34506;BME280;20748;42.632;23.198;2024-01-15T02:29:30;91241.72;;;-1.82;70.04
34506;BME280;20748;42.632;23.198;2024-01-15T02:32:04;91239.41;;;-1.83;69.87
34506;BME280;20748;42.632;23.198;2024-01-15T02:34:37;91248.84;;;-1.84;70.61
34506;BME280;20748;42.632;23.198;2024-01-15T02:37:11;91248.84;;;-1.84;70.77
34506;BME280;20748;42.632;23.198;2024-01-15T02:39:46;91240.47;;;-1.79;70.46
34506;BME280;20748;42.632;23.198;2024-01-15T02:42:19;91239.50;;;-1.73;70.83
34506;BME280;20748;42.632;23.198;2024-01-15T02:44:53;91234.28;;;-1.83;71.54
34506;BME280;20748;42.632;23.198;2024-01-15T02:47:26;91235.06;;;-1.83;72.43
34506;BME280;20748;42.632;23.198;2024-01-15T02:50:00;91244.00;;;-1.85;72.92
34506;BME280;20748;42.632;23.198;2024-01-15T02:52:34;91235.31;;;-1.84;72.94
34506;BME280;20748;42.632;23.198;2024-01-15T02:55:09;91243.03;;;-1.79;72.89
34506;BME280;20748;42.632;23.198;2024-01-15T02:57:42;91238.94;;;-1.80;72.74
34506;BME280;20748;42.632;23.198;2024-01-15T03:00:16;91233.78;;;-1.85;73.13
34506;BME280;20748;42.632;23.198;2024-01-15T03:02:50;91234.34;;;-1.78;72.53
34506;BME280;20748;42.632;23.198;2024-01-15T03:05:23;91230.72;;;-1.82;72.99
34506;BME280;20748;42.632;23.198;2024-01-15T03:07:57;91232.06;;;-1.74;73.03
34506;BME280;20748;42.632;23.198;2024-01-15T03:10:32;91229.22;;;-1.78;72.61
34506;BME280;20748;42.632;23.198;2024-01-15T03:13:05;91220.09;;;-1.69;72.63
34506;BME280;20748;42.632;23.198;2024-01-15T03:15:39;91215.94;;;-1.75;73.47
34506;BME280;20748;42.632;23.198;2024-01-15T03:18:12;91213.16;;;-1.73;73.13
34506;BME280;20748;42.632;23.198;2024-01-15T03:20:46;91207.28;;;-1.74;73.20
34506;BME280;20748;42.632;23.198;2024-01-15T03:23:19;91197.06;;;-1.69;72.39
34506;BME280;20748;42.632;23.198;2024-01-15T03:25:54;91198.97;;;-1.59;71.67
34506;BME280;20748;42.632;23.198;2024-01-15T03:28:27;91186.69;;;-1.57;71.61
34506;BME280;20748;42.632;23.198;2024-01-15T03:31:02;91199.22;;;-1.60;72.14
34506;BME280;20748;42.632;23.198;2024-01-15T03:33:36;91201.03;;;-1.56;71.97
34506;BME280;20748;42.632;23.198;2024-01-15T03:36:09;91207.47;;;-1.53;71.78
34506;BME280;20748;42.632;23.198;2024-01-15T03:38:43;91203.69;;;-1.45;71.88
34506;BME280;20748;42.632;23.198;2024-01-15T03:41:18;91196.28;;;-1.42;72.31
34506;BME280;20748;42.632;23.198;2024-01-15T03:43:51;91196.28;;;-1.42;72.42
34506;BME280;20748;42.632;23.198;2024-01-15T03:46:24;91195.78;;;-1.44;72.56
34506;BME280;20748;42.632;23.198;2024-01-15T03:48:58;91185.53;;;-1.44;72.66
34506;BME280;20748;42.632;23.198;2024-01-15T03:51:31;91188.63;;;-1.42;71.91
34506;BME280;20748;42.632;23.198;2024-01-15T03:54:05;91184.50;;;-1.43;72.97
34506;BME280;20748;42.632;23.198;2024-01-15T03:56:40;91179.41;;;-1.43;72.74
34506;BME280;20748;42.632;23.198;2024-01-15T03:59:13;91169.44;;;-1.39;71.86
34506;BME280;20748;42.632;23.198;2024-01-15T04:01:49;91156.59;;;-1.44;72.61
34506;BME280;20748;42.632;23.198;2024-01-15T04:04:23;91160.84;;;-1.60;72.89
34506;BME280;20748;42.632;23.198;2024-01-15T04:06:57;91156.09;;;-1.46;72.09
34506;BME280;20748;42.632;23.198;2024-01-15T04:09:30;91157.66;;;-1.40;71.87
34506;BME280;20748;42.632;23.198;2024-01-15T04:12:06;91162.66;;;-1.56;72.42
34506;BME280;20748;42.632;23.198;2024-01-15T04:14:39;91155.50;;;-1.54;72.71
34506;BME280;20748;42.632;23.198;2024-01-15T04:17:13;91148.44;;;-1.41;72.20
34506;BME280;20748;42.632;23.198;2024-01-15T04:19:46;91144.38;;;-1.37;72.17
34506;BME280;20748;42.632;23.198;2024-01-15T04:22:20;91152.31;;;-1.33;71.60
34506;BME280;20748;42.632;23.198;2024-01-15T04:24:53;91144.94;;;-1.30;71.67
34506;BME280;20748;42.632;23.198;2024-01-15T04:27:28;91153.66;;;-1.26;71.29
34506;BME280;20748;42.632;23.198;2024-01-15T04:30:02;91158.78;;;-1.26;71.56
34506;BME280;20748;42.632;23.198;2024-01-15T04:32:35;91170.00;;;-1.32;71.37
34506;BME280;20748;42.632;23.198;2024-01-15T04:35:09;91162.81;;;-1.35;71.25
34506;BME280;20748;42.632;23.198;2024-01-15T04:37:42;91158.38;;;-1.45;71.77
34506;BME280;20748;42.632;23.198;2024-01-15T04:40:16;91162.75;;;-1.45;71.67
34506;BME280;20748;42.632;23.198;2024-01-15T04:42:51;91175.03;;;-1.42;71.92
34506;BME280;20748;42.632;23.198;2024-01-15T04:45:24;91173.47;;;-1.49;72.08
34506;BME280;20748;42.632;23.198;2024-01-15T04:48:01;91173.91;;;-1.57;72.72
34506;BME280;20748;42.632;23.198;2024-01-15T04:50:35;91173.63;;;-1.60;73.07
34506;BME280;20748;42.632;23.198;2024-01-15T04:53:08;91170.53;;;-1.63;72.90
34506;BME280;20748;42.632;23.198;2024-01-15T04:55:44;91169.22;;;-1.70;73.86
34506;BME280;20748;42.632;23.198;2024-01-15T04:58:19;91169.22;;;-1.70;74.20
34506;BME280;20748;42.632;23.198;2024-01-15T05:00:52;91167.16;;;-1.68;73.82
34506;BME280;20748;42.632;23.198;2024-01-15T05:03:26;91163.34;;;-1.66;74.08
34506;BME280;20748;42.632;23.198;2024-01-15T05:06:00;91153.69;;;-1.58;73.60
34506;BME280;20748;42.632;23.198;2024-01-15T05:08:34;91150.72;;;-1.78;73.08
34506;BME280;20748;42.632;23.198;2024-01-15T05:11:07;91153.06;;;-1.71;72.72
34506;BME280;20748;42.632;23.198;2024-01-15T05:13:42;91156.41;;;-1.70;72.90
34506;BME280;20748;42.632;23.198;2024-01-15T05:16:16;91156.53;;;-1.55;73.06
34506;BME280;20748;42.632;23.198;2024-01-15T05:18:49;91151.94;;;-1.53;72.32
34506;BME280;20748;42.632;23.198;2024-01-15T05:21:23;91158.03;;;-1.59;72.81
34506;BME280;20748;42.632;23.198;2024-01-15T05:23:56;91155.03;;;-1.51;72.62
34506;BME280;20748;42.632;23.198;2024-01-15T05:26:30;91139.44;;;-1.49;72.71
34506;BME280;20748;42.632;23.198;2024-01-15T05:29:04;91137.41;;;-1.47;71.67
34506;BME280;20748;42.632;23.198;2024-01-15T05:31:38;91132.31;;;-1.42;71.22
34506;BME280;20748;42.632;23.198;2024-01-15T05:34:11;91122.59;;;-1.40;71.17
34506;BME280;20748;42.632;23.198;2024-01-15T05:36:45;91115.22;;;-1.31;70.50
34506;BME280;20748;42.632;23.198;2024-01-15T05:39:20;91110.94;;;-1.25;71.13
34506;BME280;20748;42.632;23.198;2024-01-15T05:41:55;91106.59;;;-1.19;71.18
34506;BME280;20748;42.632;23.198;2024-01-15T05:44:30;91106.13;;;-1.16;70.84
34506;BME280;20748;42.632;23.198;2024-01-15T05:47:03;91101.75;;;-1.16;71.35
34506;BME280;20748;42.632;23.198;2024-01-15T05:49:37;91112.72;;;-1.26;72.04
34506;BME280;20748;42.632;23.198;2024-01-15T05:52:11;91118.09;;;-1.22;72.10
34506;BME280;20748;42.632;23.198;2024-01-15T05:54:44;91125.75;;;-1.27;72.28
34506;BME280;20748;42.632;23.198;2024-01-15T05:57:18;91125.00;;;-1.28;71.15
34506;BME280;20748;42.632;23.198;2024-01-15T05:59:53;91126.84;;;-1.18;69.87
34506;BME280;20748;42.632;23.198;2024-01-15T06:02:27;91124.31;;;-1.13;70.15
34506;BME280;20748;42.632;23.198;2024-01-15T06:05:00;91106.97;;;-1.00;70.08
34506;BME280;20748;42.632;23.198;2024-01-15T06:07:35;91116.22;;;-0.94;69.50
34506;BME280;20748;42.632;23.198;2024-01-15T06:10:08;91109.56;;;-0.90;69.54
34506;BME280;20748;42.632;23.198;2024-01-15T06:12:42;91113.16;;;-0.86;69.14
34506;BME280;20748;42.632;23.198;2024-01-15T06:15:18;91126.78;;;-0.80;68.34
34506;BME280;20748;42.632;23.198;2024-01-15T06:17:51;91125.53;;;-0.72;68.38
34506;BME280;20748;42.632;23.198;2024-01-15T06:20:25;91120.94;;;-0.65;67.65
34506;BME280;20748;42.632;23.198;2024-01-15T06:22:59;91119.16;;;-0.59;66.72
34506;BME280;20748;42.632;23.198;2024-01-15T06:25:32;91121.75;;;-0.54;65.99
34506;BME280;20748;42.632;23.198;2024-01-15T06:28:06;91109.22;;;-0.45;66.75
34506;BME280;20748;42.632;23.198;2024-01-15T06:30:41;91105.38;;;-0.43;65.98
34506;BME280;20748;42.632;23.198;2024-01-15T06:33:14;91104.94;;;-0.29;66.11
34506;BME280;20748;42.632;23.198;2024-01-15T06:35:48;91103.63;;;-0.21;65.76
34506;BME280;20748;42.632;23.198;2024-01-15T06:38:21;91108.78;;;-0.11;65.54
34506;BME280;20748;42.632;23.198;2024-01-15T06:40:55;91111.13;;;-0.04;65.33
34506;BME280;20748;42.632;23.198;2024-01-15T06:43:28;91117.03;;;0.07;64.92
34506;BME280;20748;42.632;23.198;2024-01-15T06:46:03;91103.44;;;0.17;63.63
34506;BME280;20748;42.632;23.198;2024-01-15T06:48:39;91108.31;;;0.29;63.97
34506;BME280;20748;42.632;23.198;2024-01-15T06:51:15;91103.97;;;0.39;64.12
34506;BME280;20748;42.632;23.198;2024-01-15T06:53:49;91105.50;;;0.40;63.69
34506;BME280;20748;42.632;23.198;2024-01-15T06:56:22;91110.63;;;0.51;62.94
34506;BME280;20748;42.632;23.198;2024-01-15T06:58:56;91100.63;;;0.55;62.76
34506;BME280;20748;42.632;23.198;2024-01-15T07:01:30;91112.94;;;0.58;62.29
34506;BME280;20748;42.632;23.198;2024-01-15T07:04:04;91110.88;;;0.65;62.15
34506;BME280;20748;42.632;23.198;2024-01-15T07:06:37;91116.50;;;0.72;62.66
34506;BME280;20748;42.632;23.198;2024-01-15T07:09:11;91118.03;;;0.78;62.61
34506;BME280;20748;42.632;23.198;2024-01-15T07:11:45;91121.91;;;0.81;62.07
34506;BME280;20748;42.632;23.198;2024-01-15T07:14:18;91123.94;;;0.89;61.87
34506;BME280;20748;42.632;23.198;2024-01-15T07:16:53;91125.50;;;0.85;62.18
34506;BME280;20748;42.632;23.198;2024-01-15T07:19:27;91114.44;;;0.95;62.12
34506;BME280;20748;42.632;23.198;2024-01-15T07:22:00;91107.44;;;1.06;61.29
34506;BME280;20748;42.632;23.198;2024-01-15T07:24:34;91103.34;;;1.15;60.93
34506;BME280;20748;42.632;23.198;2024-01-15T07:27:08;91101.78;;;1.25;60.08
34506;BME280;20748;42.632;23.198;2024-01-15T07:29:41;91098.09;;;1.41;58.87
34506;BME280;20748;42.632;23.198;2024-01-15T07:32:16;91116.56;;;1.54;59.12
34506;BME280;20748;42.632;23.198;2024-01-15T07:34:50;91107.41;;;1.87;55.17
34506;BME280;20748;42.632;23.198;2024-01-15T07:37:23;91106.00;;;2.06;55.66
34506;BME280;20748;42.632;23.198;2024-01-15T07:39:56;91107.75;;;2.15;56.38
34506;BME280;20748;42.632;23.198;2024-01-15T07:42:30;91103.75;;;2.34;55.61
34506;BME280;20748;42.632;23.198;2024-01-15T07:45:04;91101.75;;;2.60;56.52
34506;BME280;20748;42.632;23.198;2024-01-15T07:47:39;91114.75;;;2.79;56.14
34506;BME280;20748;42.632;23.198;2024-01-15T07:50:12;91091.13;;;2.97;56.15
34506;BME280;20748;42.632;23.198;2024-01-15T07:52:46;91088.13;;;3.14;55.97
34506;BME280;20748;42.632;23.198;2024-01-15T07:55:19;91093.09;;;3.29;55.13
34506;BME280;20748;42.632;23.198;2024-01-15T07:57:52;91095.84;;;3.38;56.52
34506;BME280;20748;42.632;23.198;2024-01-15T08:00:46;91094.22;;;2.99;56.54
34506;BME280;20748;42.632;23.198;2024-01-15T08:03:21;91102.53;;;2.61;57.83
34506;BME280;20748;42.632;23.198;2024-01-15T08:05:54;91096.22;;;2.42;59.98
34506;BME280;20748;42.632;23.198;2024-01-15T08:08:29;91102.56;;;2.55;61.53
34506;BME280;20748;42.632;23.198;2024-01-15T08:11:03;91100.84;;;2.75;63.55
34506;BME280;20748;42.632;23.198;2024-01-15T08:13:36;91096.28;;;2.97;62.57
34506;BME280;20748;42.632;23.198;2024-01-15T08:16:10;91104.63;;;3.13;62.19
34506;BME280;20748;42.632;23.198;2024-01-15T08:18:45;91102.94;;;3.27;62.74
34506;BME280;20748;42.632;23.198;2024-01-15T08:21:18;91103.03;;;3.41;62.46
34506;BME280;20748;42.632;23.198;2024-01-15T08:23:52;91101.31;;;3.56;61.87
34506;BME280;20748;42.632;23.198;2024-01-15T08:26:25;91098.91;;;3.65;61.67
34506;BME280;20748;42.632;23.198;2024-01-15T08:28:59;91095.34;;;3.80;60.50
34506;BME280;20748;42.632;23.198;2024-01-15T08:31:32;91101.97;;;3.86;60.92
34506;BME280;20748;42.632;23.198;2024-01-15T08:34:07;91100.06;;;3.97;60.16
34506;BME280;20748;42.632;23.198;2024-01-15T08:36:41;91083.25;;;3.99;60.50
34506;BME280;20748;42.632;23.198;2024-01-15T08:39:14;91085.72;;;4.05;60.61
34506;BME280;20748;42.632;23.198;2024-01-15T08:41:47;91090.63;;;4.06;59.90
34506;BME280;20748;42.632;23.198;2024-01-15T08:44:21;91085.25;;;3.40;56.79
34506;BME280;20748;42.632;23.198;2024-01-15T08:46:54;91106.94;;;2.90;58.66
34506;BME280;20748;42.632;23.198;2024-01-15T08:49:29;91083.91;;;2.99;62.44
34506;BME280;20748;42.632;23.198;2024-01-15T08:52:03;91089.88;;;3.18;63.42
34506;BME280;20748;42.632;23.198;2024-01-15T08:54:36;91079.28;;;3.44;64.06
34506;BME280;20748;42.632;23.198;2024-01-15T08:57:10;91085.25;;;3.64;63.11
34506;BME280;20748;42.632;23.198;2024-01-15T08:59:44;91077.88;;;3.76;63.21
34506;BME280;20748;42.632;23.198;2024-01-15T09:02:18;91074.03;;;3.93;63.42
34506;BME280;20748;42.632;23.198;2024-01-15T09:04:52;91069.75;;;4.02;62.79
34506;BME280;20748;42.632;23.198;2024-01-15T09:07:26;91053.94;;;4.09;62.45
34506;BME280;20748;42.632;23.198;2024-01-15T09:09:59;91052.75;;;4.21;61.69
34506;BME280;20748;42.632;23.198;2024-01-15T09:12:33;91054.75;;;4.24;61.57
34506;BME280;20748;42.632;23.198;2024-01-15T09:15:07;91057.13;;;4.20;62.00
34506;BME280;20748;42.632;23.198;2024-01-15T09:17:41;91056.19;;;4.30;61.57
34506;BME280;20748;42.632;23.198;2024-01-15T09:20:16;91044.94;;;4.40;61.59
34506;BME280;20748;42.632;23.198;2024-01-15T09:22:50;91044.19;;;4.39;61.47
34506;BME280;20748;42.632;23.198;2024-01-15T09:25:23;91038.75;;;4.41;62.45
34506;BME280;20748;42.632;23.198;2024-01-15T09:27:57;91032.53;;;4.42;61.83
34506;BME280;20748;42.632;23.198;2024-01-15T09:30:30;91043.91;;;4.55;61.98
34506;BME280;20748;42.632;23.198;2024-01-15T09:33:04;91045.56;;;4.51;62.22
34506;BME280;20748;42.632;23.198;2024-01-15T09:35:39;91047.16;;;4.47;61.76
34506;BME280;20748;42.632;23.198;2024-01-15T09:38:12;91038.97;;;4.59;61.99
34506;BME280;20748;42.632;23.198;2024-01-15T09:40:46;91039.69;;;4.45;61.98
34506;BME280;20748;42.632;23.198;2024-01-15T09:43:19;91017.88;;;4.51;61.30
34506;BME280;20748;42.632;23.198;2024-01-15T09:45:53;91006.88;;;4.46;61.28
34506;BME280;20748;42.632;23.198;2024-01-15T09:48:27;90989.09;;;4.44;61.79
34506;BME280;20748;42.632;23.198;2024-01-15T09:51:02;90974.72;;;4.38;62.22
34506;BME280;20748;42.632;23.198;2024-01-15T09:53:36;90962.50;;;4.43;62.59
34506;BME280;20748;42.632;23.198;2024-01-15T09:56:10;90968.91;;;4.60;62.71
34506;BME280;20748;42.632;23.198;2024-01-15T09:58:44;90960.59;;;4.49;63.49
34506;BME280;20748;42.632;23.198;2024-01-15T10:01:18;90971.81;;;4.59;63.37
34506;BME280;20748;42.632;23.198;2024-01-15T10:03:53;90965.50;;;4.65;63.23
34506;BME280;20748;42.632;23.198;2024-01-15T10:06:29;90971.50;;;4.74;63.59
34506;BME280;20748;42.632;23.198;2024-01-15T10:09:03;90957.94;;;4.82;63.65
34506;BME280;20748;42.632;23.198;2024-01-15T10:11:36;90959.19;;;4.85;62.99
34506;BME280;20748;42.632;23.198;2024-01-15T10:14:10;90972.28;;;4.89;62.59
34506;BME280;20748;42.632;23.198;2024-01-15T10:16:44;90944.25;;;4.82;63.32
34506;BME280;20748;42.632;23.198;2024-01-15T10:19:18;90942.81;;;4.90;63.66
34506;BME280;20748;42.632;23.198;2024-01-15T10:21:53;90937.81;;;4.93;64.11
34506;BME280;20748;42.632;23.198;2024-01-15T10:24:26;90929.09;;;5.03;64.29
34506;BME280;20748;42.632;23.198;2024-01-15T10:27:04;90925.94;;;5.06;64.75
34506;BME280;20748;42.632;23.198;2024-01-15T10:29:38;90928.13;;;5.13;63.72
34506;BME280;20748;42.632;23.198;2024-01-15T10:32:11;90922.31;;;5.44;63.23
34506;BME280;20748;42.632;23.198;2024-01-15T10:34:45;90923.91;;;5.54;62.19
34506;BME280;20748;42.632;23.198;2024-01-15T10:37:20;90933.09;;;5.60;63.02
34506;BME280;20748;42.632;23.198;2024-01-15T10:39:56;90947.56;;;5.61;63.69
34506;BME280;20748;42.632;23.198;2024-01-15T10:42:30;90927.66;;;5.48;64.00
34506;BME280;20748;42.632;23.198;2024-01-15T10:45:04;90921.97;;;5.60;63.85
34506;BME280;20748;42.632;23.198;2024-01-15T10:47:37;90915.25;;;5.59;63.71
34506;BME280;20748;42.632;23.198;2024-01-15T10:50:12;90926.38;;;5.59;61.79
34506;BME280;20748;42.632;23.198;2024-01-15T10:52:46;90908.38;;;5.54;61.18
34506;BME280;20748;42.632;23.198;2024-01-15T10:55:20;90900.63;;;5.54;59.99
34506;BME280;20748;42.632;23.198;2024-01-15T10:57:54;90913.38;;;5.50;59.88
34506;BME280;20748;42.632;23.198;2024-01-15T11:00:29;90893.84;;;5.44;59.86
34506;BME280;20748;42.632;23.198;2024-01-15T11:03:03;90891.50;;;5.34;60.52
34506;BME280;20748;42.632;23.198;2024-01-15T11:05:38;90894.88;;;5.20;61.46
34506;BME280;20748;42.632;23.198;2024-01-15T11:08:13;90894.88;;;5.20;61.22
34506;BME280;20748;42.632;23.198;2024-01-15T11:10:50;90892.78;;;5.08;60.03
34506;BME280;20748;42.632;23.198;2024-01-15T11:16:13;90874.66;;;5.22;60.02
34506;BME280;20748;42.632;23.198;2024-01-15T11:19:02;90880.00;;;5.26;60.55
34506;BME280;20748;42.632;23.198;2024-01-15T11:21:41;90866.44;;;5.20;60.14
34506;BME280;20748;42.632;23.198;2024-01-15T11:27:05;90869.94;;;5.24;59.67
34506;BME280;20748;42.632;23.198;2024-01-15T11:29:38;90859.09;;;5.36;59.95
34506;BME280;20748;42.632;23.198;2024-01-15T11:32:12;90872.97;;;5.41;59.73
34506;BME280;20748;42.632;23.198;2024-01-15T11:34:58;90864.38;;;5.31;59.48
34506;BME280;20748;42.632;23.198;2024-01-15T11:40:39;90864.44;;;5.40;59.50
34506;BME280;20748;42.632;23.198;2024-01-15T11:43:16;90858.56;;;5.48;59.71
34506;BME280;20748;42.632;23.198;2024-01-15T11:45:53;90862.81;;;5.44;60.03
34506;BME280;20748;42.632;23.198;2024-01-15T11:48:27;90851.69;;;5.44;59.79
34506;BME280;20748;42.632;23.198;2024-01-15T11:51:11;90848.16;;;5.40;60.72
34506;BME280;20748;42.632;23.198;2024-01-15T11:53:45;90845.63;;;5.48;60.55
34506;BME280;20748;42.632;23.198;2024-01-15T11:56:20;90845.00;;;5.43;60.39
34506;BME280;20748;42.632;23.198;2024-01-15T11:58:57;90843.34;;;5.47;60.40
34506;BME280;20748;42.632;23.198;2024-01-15T12:01:32;90833.13;;;5.42;60.91
34506;BME280;20748;42.632;23.198;2024-01-15T12:04:06;90833.41;;;5.40;60.56
34506;BME280;20748;42.632;23.198;2024-01-15T12:06:41;90831.56;;;5.41;60.24
34506;BME280;20748;42.632;23.198;2024-01-15T12:09:15;90833.13;;;5.42;60.63
34506;BME280;20748;42.632;23.198;2024-01-15T12:11:54;90840.03;;;5.32;60.78
34506;BME280;20748;42.632;23.198;2024-01-15T12:14:32;90846.69;;;5.24;61.74
34506;BME280;20748;42.632;23.198;2024-01-15T12:17:07;90840.50;;;5.34;61.19
34506;BME280;20748;42.632;23.198;2024-01-15T12:19:40;90843.03;;;5.26;62.12
34506;BME280;20748;42.632;23.198;2024-01-15T12:22:13;90826.53;;;5.35;62.32
34506;BME280;20748;42.632;23.198;2024-01-15T12:24:47;90825.19;;;5.38;62.12
34506;BME280;20748;42.632;23.198;2024-01-15T12:27:21;90831.66;;;5.27;62.78
34506;BME280;20748;42.632;23.198;2024-01-15T12:29:56;90823.28;;;5.30;63.33
34506;BME280;20748;42.632;23.198;2024-01-15T12:32:32;90819.25;;;5.37;62.77
34506;BME280;20748;42.632;23.198;2024-01-15T12:35:05;90818.19;;;5.38;63.40
34506;BME280;20748;42.632;23.198;2024-01-15T12:37:39;90808.19;;;5.46;62.66
34506;BME280;20748;42.632;23.198;2024-01-15T12:40:13;90813.28;;;5.37;64.11
34506;BME280;20748;42.632;23.198;2024-01-15T12:42:46;90804.66;;;5.42;64.43
34506;BME280;20748;42.632;23.198;2024-01-15T12:45:21;90808.78;;;5.43;63.84
34506;BME280;20748;42.632;23.198;2024-01-15T12:47:55;90825.81;;;5.44;63.88
34506;BME280;20748;42.632;23.198;2024-01-15T12:50:30;90817.59;;;5.42;63.19
34506;BME280;20748;42.632;23.198;2024-01-15T12:53:06;90822.50;;;5.52;63.15
34506;BME280;20748;42.632;23.198;2024-01-15T12:55:40;90794.53;;;5.54;63.39
34506;BME280;20748;42.632;23.198;2024-01-15T12:58:13;90813.00;;;5.38;64.28
34506;BME280;20748;42.632;23.198;2024-01-15T13:00:51;90796.66;;;5.52;64.01
34506;BME280;20748;42.632;23.198;2024-01-15T13:03:25;90792.88;;;5.58;63.28
34506;BME280;20748;42.632;23.198;2024-01-15T13:05:58;90794.41;;;5.59;64.05
34506;BME280;20748;42.632;23.198;2024-01-15T13:08:32;90794.72;;;5.58;64.18
34506;BME280;20748;42.632;23.198;2024-01-15T13:11:06;90794.50;;;5.45;64.72
34506;BME280;20748;42.632;23.198;2024-01-15T13:13:39;90793.94;;;5.57;64.74
34506;BME280;20748;42.632;23.198;2024-01-15T13:16:14;90796.06;;;5.55;65.01
34506;BME280;20748;42.632;23.198;2024-01-15T13:18:47;90793.31;;;5.51;65.44
34506;BME280;20748;42.632;23.198;2024-01-15T13:21:22;90786.91;;;5.49;65.40
34506;BME280;20748;42.632;23.198;2024-01-15T13:23:55;90785.31;;;5.39;65.91
34506;BME280;20748;42.632;23.198;2024-01-15T13:26:28;90779.13;;;5.49;65.76
34506;BME280;20748;42.632;23.198;2024-01-15T13:29:02;90768.00;;;5.48;65.49
34506;BME280;20748;42.632;23.198;2024-01-15T13:31:38;90787.78;;;5.44;66.41
34506;BME280;20748;42.632;23.198;2024-01-15T13:34:11;90778.25;;;5.54;66.39
34506;BME280;20748;42.632;23.198;2024-01-15T13:36:45;90779.44;;;5.47;66.15
34506;BME280;20748;42.632;23.198;2024-01-15T13:39:18;90773.19;;;5.48;66.82